createdAt,value
2019-03-18T00:00:43.159Z,5.60
2019-03-18T00:03:12.984Z,5.50
2019-03-18T00:05:42.931Z,5.60
2019-03-18T00:08:12.834Z,5.60
2019-03-18T00:10:42.674Z,5.50
2019-03-18T00:13:12.531Z,5.50
2019-03-18T00:15:42.380Z,5.50
2019-03-18T00:18:12.256Z,5.50
2019-03-18T00:20:42.140Z,5.50
2019-03-18T00:23:11.981Z,5.40
2019-03-18T00:25:41.899Z,5.40
2019-03-18T00:28:11.814Z,5.30
2019-03-18T00:30:41.659Z,5.30
2019-03-18T00:33:11.494Z,5.30
2019-03-18T00:35:41.339Z,5.30
2019-03-18T00:38:11.220Z,5.30
2019-03-18T00:40:41.078Z,5.40
2019-03-18T00:43:10.905Z,5.40
2019-03-18T00:45:40.764Z,5.40
2019-03-18T00:48:10.679Z,5.40
2019-03-18T00:50:40.532Z,5.30
2019-03-18T00:53:10.351Z,5.30
2019-03-18T00:55:40.191Z,5.30
2019-03-18T00:58:10.179Z,5.30
2019-03-18T01:00:40.043Z,5.30
2019-03-18T01:03:09.902Z,5.30
2019-03-18T01:05:39.743Z,5.20
2019-03-18T01:08:09.707Z,5.20
2019-03-18T01:10:39.650Z,5.20
2019-03-18T01:13:09.634Z,5.20
2019-03-18T01:15:39.475Z,5.10
2019-03-18T01:18:09.356Z,5.10
2019-03-18T01:20:39.203Z,5.20
2019-03-18T01:23:09.068Z,5.20
2019-03-18T01:25:40.172Z,5.20
2019-03-18T01:28:10.072Z,5.10
2019-03-18T01:30:39.915Z,5.10
2019-03-18T01:33:09.767Z,5.00
2019-03-18T01:35:40.078Z,4.90
2019-03-18T01:38:10.211Z,4.90
2019-03-18T01:40:40.058Z,4.80
2019-03-18T01:43:09.888Z,4.60
2019-03-18T01:45:41.045Z,4.60
2019-03-18T01:48:11.337Z,4.60
2019-03-18T01:50:41.179Z,4.60
2019-03-18T01:53:11.017Z,4.60
2019-03-18T01:55:40.877Z,4.60
2019-03-18T01:58:10.752Z,4.60
2019-03-18T02:00:41.379Z,4.50
2019-03-18T02:03:11.228Z,4.40
2019-03-18T02:05:41.061Z,4.40
2019-03-18T02:08:11.943Z,4.40
2019-03-18T02:10:41.799Z,4.40
2019-03-18T02:13:11.648Z,4.40
2019-03-18T02:15:52.746Z,4.30
2019-03-18T02:18:13.042Z,4.30
2019-03-18T02:20:43.483Z,4.40
2019-03-18T02:23:13.319Z,4.40
2019-03-18T02:25:44.140Z,4.30
2019-03-18T02:28:14.482Z,4.20
2019-03-18T02:30:44.310Z,4.10
2019-03-18T02:33:14.171Z,4.10
2019-03-18T02:35:44.019Z,4.20
2019-03-18T02:38:13.901Z,4.20
2019-03-18T02:40:43.747Z,4.20
2019-03-18T02:43:13.593Z,4.20
2019-03-18T02:45:43.466Z,4.10
2019-03-18T02:48:13.355Z,4.10
2019-03-18T02:50:43.249Z,4.10
2019-03-18T02:53:13.019Z,4.10
2019-03-18T02:55:42.883Z,4.10
2019-03-18T02:58:12.796Z,4.10
2019-03-18T03:00:42.677Z,4.30
2019-03-18T03:03:12.502Z,4.30
2019-03-18T03:05:42.336Z,4.40
2019-03-18T03:08:12.237Z,4.30
2019-03-18T03:10:42.067Z,4.30
2019-03-18T03:13:11.893Z,4.30
2019-03-18T03:15:41.769Z,4.30
2019-03-18T03:18:11.740Z,4.30
2019-03-18T03:20:41.575Z,4.30
2019-03-18T03:23:11.433Z,4.30
2019-03-18T03:25:42.153Z,4.20
2019-03-18T03:28:12.620Z,4.20
2019-03-18T03:30:42.485Z,4.20
2019-03-18T03:33:12.332Z,4.30
2019-03-18T03:35:42.180Z,4.40
2019-03-18T03:38:12.047Z,4.40
2019-03-18T03:40:41.897Z,4.40
2019-03-18T03:43:11.774Z,4.40
2019-03-18T03:45:41.715Z,4.50
2019-03-18T03:48:11.605Z,4.40
2019-03-18T03:50:41.467Z,4.50
2019-03-18T03:53:11.308Z,4.50
2019-03-18T03:55:41.233Z,4.50
2019-03-18T03:58:11.249Z,4.40
2019-03-18T04:00:42.776Z,4.40
2019-03-18T04:03:12.688Z,4.40
2019-03-18T04:05:42.624Z,4.30
2019-03-18T04:08:12.561Z,4.40
2019-03-18T04:10:42.419Z,4.50
2019-03-18T04:13:12.268Z,4.50
2019-03-18T04:15:42.105Z,4.60
2019-03-18T04:18:12.050Z,4.60
2019-03-18T04:20:41.908Z,4.70
2019-03-18T04:23:11.791Z,4.70
2019-03-18T04:25:41.784Z,4.60
2019-03-18T04:28:11.721Z,4.50
2019-03-18T04:30:41.586Z,4.40
2019-03-18T04:33:11.428Z,4.20
2019-03-18T04:35:41.296Z,4.20
2019-03-18T04:38:11.345Z,4.20
2019-03-18T04:40:41.193Z,4.30
2019-03-18T04:43:11.045Z,4.20
2019-03-18T04:45:42.111Z,4.30
2019-03-18T04:48:12.227Z,4.20
2019-03-18T04:50:42.083Z,4.40
2019-03-18T04:53:11.955Z,4.40
2019-03-18T04:55:41.807Z,4.40
2019-03-18T04:58:11.837Z,4.40
2019-03-18T05:00:41.687Z,4.50
2019-03-18T05:03:11.537Z,4.40
2019-03-18T05:05:41.399Z,4.50
2019-03-18T05:08:11.335Z,4.30
2019-03-18T05:10:41.224Z,4.40
2019-03-18T05:13:11.051Z,4.40
2019-03-18T05:15:40.992Z,4.40
2019-03-18T05:18:10.889Z,4.30
2019-03-18T05:20:40.742Z,4.30
2019-03-18T05:23:10.595Z,4.40
2019-03-18T05:25:40.432Z,4.40
2019-03-18T05:28:10.431Z,4.40
2019-03-18T05:30:40.364Z,4.40
2019-03-18T05:33:10.240Z,4.40
2019-03-18T05:35:40.207Z,4.40
2019-03-18T05:38:10.154Z,4.50
2019-03-18T05:40:39.999Z,4.50
2019-03-18T05:43:09.888Z,4.50
2019-03-18T05:45:39.739Z,4.60
2019-03-18T05:48:09.730Z,4.50
2019-03-18T05:50:39.603Z,4.50
2019-03-18T05:53:09.646Z,4.50
2019-03-18T05:55:39.519Z,4.50
2019-03-18T05:58:09.462Z,4.40
2019-03-18T06:00:39.363Z,4.40
2019-03-18T06:03:10.321Z,4.50
2019-03-18T06:05:40.228Z,4.40
2019-03-18T06:08:11.590Z,4.30
2019-03-18T06:10:41.919Z,4.40
2019-03-18T06:13:11.887Z,4.40
2019-03-18T06:15:41.947Z,4.40
2019-03-18T06:18:11.848Z,4.40
2019-03-18T06:20:41.747Z,4.50
2019-03-18T06:23:11.603Z,4.50
2019-03-18T06:25:41.677Z,4.50
2019-03-18T06:28:11.677Z,4.50
2019-03-18T06:30:41.639Z,4.50
2019-03-18T06:33:11.540Z,4.60
2019-03-18T06:35:41.368Z,4.60
2019-03-18T06:38:11.429Z,4.70
2019-03-18T06:40:41.281Z,4.70
2019-03-18T06:43:11.398Z,4.60
2019-03-18T06:45:41.275Z,4.70
2019-03-18T06:48:11.212Z,4.80
2019-03-18T06:50:41.300Z,4.70
2019-03-18T06:53:11.364Z,4.90
2019-03-18T06:55:41.198Z,5.00
2019-03-18T06:58:11.171Z,4.90
2019-03-18T07:00:41.199Z,4.90
2019-03-18T07:03:11.963Z,4.90
2019-03-18T07:05:41.984Z,4.90
2019-03-18T07:08:11.862Z,5.00
2019-03-18T07:10:41.957Z,5.00
2019-03-18T07:13:11.848Z,5.00
2019-03-18T07:15:41.750Z,5.00
2019-03-18T07:18:18.016Z,5.10
2019-03-18T07:20:43.191Z,5.10
2019-03-18T07:23:13.082Z,5.20
2019-03-18T07:25:43.024Z,5.20
2019-03-18T07:28:12.960Z,5.30
2019-03-18T07:30:42.857Z,5.30
2019-03-18T07:33:12.757Z,5.30
2019-03-18T07:35:43.449Z,5.40
2019-03-18T07:38:13.311Z,5.40
2019-03-18T07:40:43.165Z,5.40
2019-03-18T07:43:13.039Z,5.50
2019-03-18T07:45:42.931Z,5.40
2019-03-18T07:48:12.857Z,5.40
2019-03-18T07:50:42.730Z,5.50
2019-03-18T07:53:12.600Z,5.50
2019-03-18T07:55:42.638Z,5.50
2019-03-18T07:58:12.533Z,5.50
2019-03-18T08:00:42.457Z,5.50
2019-03-18T08:03:12.276Z,5.50
2019-03-18T08:05:42.193Z,5.50
2019-03-18T08:08:12.136Z,5.50
2019-03-18T08:10:41.976Z,5.60
2019-03-18T08:13:11.956Z,5.60
2019-03-18T08:15:41.826Z,5.70
2019-03-18T08:18:11.757Z,5.70
2019-03-18T08:20:41.767Z,5.80
2019-03-18T08:23:11.836Z,5.80
2019-03-18T08:25:41.731Z,5.80
2019-03-18T08:28:11.967Z,5.90
2019-03-18T08:30:42.075Z,6.00
2019-03-18T08:33:12.051Z,6.10
2019-03-18T08:35:42.197Z,6.10
2019-03-18T08:38:12.939Z,6.20
2019-03-18T08:40:43.236Z,6.30
2019-03-18T08:43:13.348Z,6.40
2019-03-18T08:45:43.399Z,6.40
2019-03-18T08:48:13.321Z,6.60
2019-03-18T08:50:43.287Z,6.70
2019-03-18T08:53:13.340Z,6.80
2019-03-18T08:55:43.253Z,6.70
2019-03-18T08:58:13.132Z,6.70
2019-03-18T09:00:43.011Z,6.50
2019-03-18T09:03:12.904Z,6.60
2019-03-18T09:05:42.903Z,6.50
2019-03-18T09:08:12.803Z,6.50
2019-03-18T09:10:42.684Z,6.60
2019-03-18T09:13:12.553Z,6.90
2019-03-18T09:15:42.375Z,7.00
2019-03-18T09:18:12.365Z,7.10
2019-03-18T09:20:42.197Z,6.90
2019-03-18T09:23:12.063Z,7.20
2019-03-18T09:25:41.920Z,7.00
2019-03-18T09:28:11.892Z,7.10
2019-03-18T09:30:43.111Z,7.30
2019-03-18T09:33:13.051Z,7.50
2019-03-18T09:35:43.015Z,7.70
2019-03-18T09:38:12.881Z,7.70
2019-03-18T09:40:42.753Z,8.10
2019-03-18T09:43:12.701Z,7.70
2019-03-18T09:45:43.093Z,8.10
2019-03-18T09:48:13.124Z,8.20
2019-03-18T09:50:42.967Z,8.00
2019-03-18T09:53:12.944Z,8.50
2019-03-18T09:55:42.795Z,8.60
2019-03-18T09:58:12.751Z,8.70
2019-03-18T10:00:42.684Z,8.80
2019-03-18T10:03:12.667Z,8.70
2019-03-18T10:05:43.939Z,8.40
2019-03-18T10:08:13.921Z,8.50
2019-03-18T10:10:43.871Z,8.20
2019-03-18T10:13:13.735Z,8.30
2019-03-18T10:15:43.683Z,8.50
2019-03-18T10:18:13.591Z,8.90
2019-03-18T10:20:43.568Z,9.30
2019-03-18T10:23:13.426Z,9.60
2019-03-18T10:25:43.264Z,9.40
2019-03-18T10:28:13.250Z,9.10
2019-03-18T10:30:43.551Z,9.30
2019-03-18T10:33:13.451Z,9.40
2019-03-18T10:35:43.323Z,9.80
2019-03-18T10:38:13.187Z,9.90
2019-03-18T10:40:43.162Z,9.90
2019-03-18T10:43:13.018Z,9.50
2019-03-18T10:45:42.879Z,9.40
2019-03-18T10:48:12.862Z,9.90
2019-03-18T10:50:42.714Z,10.20
2019-03-18T10:53:12.601Z,10.30
2019-03-18T10:55:42.394Z,10.30
2019-03-18T10:58:12.307Z,10.10
2019-03-18T11:00:42.276Z,10.70
2019-03-18T11:03:12.192Z,10.40
2019-03-18T11:05:42.037Z,10.50
2019-03-18T11:08:12.028Z,10.20
2019-03-18T11:10:41.892Z,10.00
2019-03-18T11:13:11.756Z,10.20
2019-03-18T11:15:41.587Z,9.90
2019-03-18T11:18:11.528Z,9.60
2019-03-18T11:20:41.497Z,9.70
2019-03-18T11:23:11.452Z,9.80
2019-03-18T11:25:41.311Z,10.10
2019-03-18T11:28:11.311Z,9.90
2019-03-18T11:30:41.307Z,10.20
2019-03-18T11:33:11.274Z,10.10
2019-03-18T11:35:41.287Z,10.20
2019-03-18T11:38:11.253Z,10.10
2019-03-18T11:40:41.312Z,10.20
2019-03-18T11:43:11.258Z,10.40
2019-03-18T11:45:41.308Z,11.30
2019-03-18T11:48:11.526Z,11.10
2019-03-18T11:50:41.724Z,10.60
2019-03-18T11:53:14.609Z,10.80
2019-03-18T11:55:43.705Z,10.80
2019-03-18T11:58:14.835Z,11.40
2019-03-18T12:00:45.241Z,12.60
2019-03-18T12:03:15.453Z,12.40
2019-03-18T12:05:45.306Z,12.40
2019-03-18T12:08:15.471Z,12.10
2019-03-18T12:10:45.472Z,11.90
2019-03-18T12:13:16.282Z,11.30
2019-03-18T12:15:46.469Z,11.60
2019-03-18T12:18:16.484Z,11.30
2019-03-18T12:20:46.560Z,11.10
2019-03-18T12:23:16.646Z,10.70
2019-03-18T12:25:46.588Z,10.60
2019-03-18T12:28:16.804Z,10.50
2019-03-18T12:30:46.913Z,10.30
2019-03-18T12:33:16.843Z,10.30
2019-03-18T12:35:46.712Z,9.90
2019-03-18T12:38:16.600Z,9.60
2019-03-18T12:40:46.511Z,9.20
2019-03-18T12:43:16.512Z,9.20
2019-03-18T12:45:46.438Z,9.30
2019-03-18T12:48:16.408Z,9.20
2019-03-18T12:50:55.722Z,9.40
2019-03-18T12:53:17.920Z,9.10
2019-03-18T12:55:47.918Z,9.10
2019-03-18T12:58:17.885Z,9.10
2019-03-18T13:00:47.948Z,9.20
2019-03-18T13:03:17.804Z,9.00
2019-03-18T13:05:47.720Z,8.90
2019-03-18T13:08:17.606Z,8.80
2019-03-18T13:10:47.576Z,9.00
2019-03-18T13:13:17.408Z,9.00
2019-03-18T13:15:47.275Z,9.00
2019-03-18T13:18:17.147Z,9.00
2019-03-18T13:20:47.071Z,9.00
2019-03-18T13:23:16.931Z,8.90
2019-03-18T13:25:47.570Z,9.00
2019-03-18T13:28:17.451Z,9.10
2019-03-18T13:30:47.399Z,9.00
2019-03-18T13:33:17.476Z,8.70
2019-03-18T13:35:47.505Z,8.50
2019-03-18T13:38:17.443Z,8.30
2019-03-18T13:40:47.291Z,8.30
2019-03-18T13:43:17.123Z,8.30
2019-03-18T13:45:55.092Z,8.10
2019-03-18T13:48:18.604Z,8.10
2019-03-18T13:50:48.606Z,8.10
2019-03-18T13:53:18.427Z,8.00
2019-03-18T13:55:48.405Z,7.90
2019-03-18T13:58:18.297Z,7.90
2019-03-18T14:00:48.149Z,7.90
2019-03-18T14:03:18.159Z,8.00
2019-03-18T14:05:48.379Z,8.10
2019-03-18T14:08:18.513Z,8.20
2019-03-18T14:10:48.405Z,8.30
2019-03-18T14:13:18.642Z,8.30
2019-03-18T14:15:48.620Z,8.30
2019-03-18T14:18:18.797Z,8.30
2019-03-18T14:20:48.699Z,8.40
2019-03-18T14:23:18.834Z,8.50
2019-03-18T14:25:48.756Z,8.60
2019-03-18T14:28:18.708Z,8.70
2019-03-18T14:30:48.603Z,8.90
2019-03-18T14:33:18.674Z,9.00
2019-03-18T14:35:48.758Z,9.10
2019-03-18T14:38:18.811Z,9.60
2019-03-18T14:40:48.746Z,9.70
2019-03-18T14:43:18.775Z,9.60
2019-03-18T14:45:48.826Z,10.00
2019-03-18T14:48:18.838Z,10.30
2019-03-18T14:50:48.815Z,10.10
2019-03-18T14:53:18.751Z,10.00
2019-03-18T14:55:48.754Z,9.80
2019-03-18T14:58:18.720Z,9.70
2019-03-18T15:00:48.851Z,9.90
2019-03-18T15:03:19.119Z,9.80
2019-03-18T15:05:49.095Z,9.60
2019-03-18T15:08:19.192Z,10.10
2019-03-18T15:10:49.347Z,10.90
2019-03-18T15:13:30.369Z,11.70
2019-03-18T15:15:51.653Z,11.90
2019-03-18T15:18:21.771Z,11.90
2019-03-18T15:20:51.845Z,11.70
2019-03-18T15:23:21.724Z,12.20
2019-03-18T15:25:51.638Z,12.00
2019-03-18T15:28:21.723Z,11.50
2019-03-18T15:30:51.623Z,11.10
2019-03-18T15:33:21.592Z,10.60
2019-03-18T15:35:51.595Z,10.20
2019-03-18T15:38:21.726Z,10.20
2019-03-18T15:40:51.715Z,10.10
2019-03-18T15:43:21.712Z,9.70
2019-03-18T15:45:51.696Z,9.50
2019-03-18T15:48:23.879Z,9.20
2019-03-18T15:50:53.755Z,8.90
2019-03-18T15:53:23.724Z,8.50
2019-03-18T15:55:53.713Z,8.20
2019-03-18T15:58:23.703Z,7.90
2019-03-18T16:00:53.697Z,7.90
2019-03-18T16:03:23.823Z,8.00
2019-03-18T16:05:53.897Z,8.00
2019-03-18T16:08:23.933Z,8.10
2019-03-18T16:10:53.967Z,8.20
2019-03-18T16:13:23.991Z,8.40
2019-03-18T16:15:55.160Z,8.50
2019-03-18T16:18:25.171Z,8.50
2019-03-18T16:20:55.104Z,8.60
2019-03-18T16:23:25.002Z,8.70
2019-03-18T16:25:54.943Z,8.60
2019-03-18T16:28:24.939Z,8.60
2019-03-18T16:30:54.948Z,8.40
2019-03-18T16:33:24.995Z,8.30
2019-03-18T16:35:55.012Z,8.20
2019-03-18T16:38:25.036Z,8.20
2019-03-18T16:40:55.078Z,8.10
2019-03-18T16:43:24.976Z,8.10
2019-03-18T16:45:54.803Z,8.10
2019-03-18T16:48:25.485Z,8.10
2019-03-18T16:50:55.430Z,8.10
2019-03-18T16:53:25.360Z,8.20
2019-03-18T16:55:55.397Z,8.20
2019-03-18T16:58:25.481Z,8.20
2019-03-18T17:00:55.463Z,8.20
2019-03-18T17:03:25.399Z,8.20
2019-03-18T17:05:55.518Z,8.30
2019-03-18T17:08:25.488Z,8.00
2019-03-18T17:10:55.407Z,7.90
2019-03-18T17:13:25.380Z,7.90
2019-03-18T17:15:55.311Z,7.80
2019-03-18T17:18:25.362Z,7.70
2019-03-18T17:20:55.295Z,7.60
2019-03-18T17:23:25.212Z,7.60
2019-03-18T17:25:55.155Z,7.50
2019-03-18T17:28:25.208Z,7.50
2019-03-18T17:30:55.355Z,7.40
2019-03-18T17:33:25.870Z,7.30
2019-03-18T17:35:55.928Z,7.30
2019-03-18T17:38:25.936Z,7.30
2019-03-18T17:40:56.207Z,7.30
2019-03-18T17:43:26.216Z,7.30
2019-03-18T17:45:56.226Z,7.30
2019-03-18T17:48:27.155Z,7.30
2019-03-18T17:50:57.144Z,7.20
2019-03-18T17:53:27.105Z,7.20
2019-03-18T17:55:56.988Z,7.10
2019-03-18T17:58:27.102Z,7.00
2019-03-18T18:00:57.465Z,7.00
2019-03-18T18:03:27.450Z,6.90
2019-03-18T18:05:57.366Z,6.90
2019-03-18T18:08:28.335Z,6.80
2019-03-18T18:10:58.239Z,6.70
2019-03-18T18:13:28.252Z,6.70
2019-03-18T18:15:58.267Z,6.70
2019-03-18T18:18:28.197Z,6.70
2019-03-18T18:20:58.196Z,6.70
2019-03-18T18:23:29.160Z,6.70
2019-03-18T18:25:59.295Z,6.70
2019-03-18T18:28:29.304Z,6.70
2019-03-18T18:30:59.176Z,6.80
2019-03-18T18:33:29.100Z,6.80
2019-03-18T18:35:59.067Z,6.80
2019-03-18T18:38:29.132Z,6.80
2019-03-18T18:40:59.408Z,6.80
2019-03-18T18:43:29.343Z,6.80
2019-03-18T18:45:59.284Z,6.70
2019-03-18T18:48:29.271Z,6.70
2019-03-18T18:50:59.230Z,6.70
2019-03-18T18:53:29.117Z,6.70
2019-03-18T18:55:59.127Z,6.60
2019-03-18T18:58:29.120Z,6.60
2019-03-18T19:00:59.230Z,6.60
2019-03-18T19:03:29.252Z,6.60
2019-03-18T19:05:59.208Z,6.50
2019-03-18T19:08:29.412Z,6.50
2019-03-18T19:10:59.349Z,6.40
2019-03-18T19:13:29.260Z,6.30
2019-03-18T19:15:59.258Z,6.20
2019-03-18T19:18:37.796Z,6.20
2019-03-18T19:21:00.902Z,6.20
2019-03-18T19:23:37.502Z,6.20
2019-03-18T19:26:02.571Z,6.10
2019-03-18T19:28:32.635Z,6.10
2019-03-18T19:31:02.742Z,6.10
2019-03-18T19:33:32.767Z,6.10
2019-03-18T19:36:02.810Z,5.80
2019-03-18T19:38:33.571Z,5.60
2019-03-18T19:41:03.547Z,5.40
2019-03-18T19:43:33.471Z,5.50
2019-03-18T19:46:03.515Z,5.40
2019-03-18T19:48:34.536Z,5.40
2019-03-18T19:51:04.588Z,5.50
2019-03-18T19:53:34.536Z,5.30
2019-03-18T19:56:04.445Z,5.10
2019-03-18T19:58:34.368Z,4.80
2019-03-18T20:01:04.502Z,4.80
2019-03-18T20:03:34.691Z,4.80
2019-03-18T20:06:04.743Z,4.90
2019-03-18T20:08:36.799Z,5.00
2019-03-18T20:11:06.947Z,5.10
2019-03-18T20:13:36.998Z,5.10
2019-03-18T20:16:06.918Z,5.00
2019-03-18T20:18:36.932Z,5.00
2019-03-18T20:21:06.876Z,5.00
2019-03-18T20:23:36.869Z,5.10
2019-03-18T20:26:07.003Z,5.00
2019-03-18T20:28:37.150Z,5.10
2019-03-18T20:31:07.015Z,4.80
2019-03-18T20:33:37.148Z,4.90
2019-03-18T20:36:07.028Z,4.70
2019-03-18T20:38:38.603Z,4.60
2019-03-18T20:41:08.428Z,4.40
2019-03-18T20:43:38.274Z,4.30
2019-03-18T20:46:08.120Z,4.20
2019-03-18T20:48:38.060Z,4.10
2019-03-18T20:51:07.919Z,4.20
2019-03-18T20:53:37.762Z,4.40
2019-03-18T20:56:07.703Z,4.40
2019-03-18T20:58:37.999Z,4.40
2019-03-18T21:01:07.945Z,4.30
2019-03-18T21:03:37.779Z,4.40
2019-03-18T21:06:07.609Z,4.50
2019-03-18T21:08:37.483Z,4.60
2019-03-18T21:11:07.375Z,4.80
2019-03-18T21:13:37.205Z,4.80
2019-03-18T21:16:07.103Z,5.00
2019-03-18T21:18:37.036Z,5.10
2019-03-18T21:21:06.871Z,5.00
2019-03-18T21:23:36.736Z,4.90
2019-03-18T21:26:07.223Z,5.00
2019-03-18T21:28:41.462Z,4.90
2019-03-18T21:31:09.248Z,5.10
2019-03-18T21:33:39.288Z,5.10
2019-03-18T21:36:09.265Z,4.90
2019-03-18T21:38:39.207Z,4.90
2019-03-18T21:41:09.080Z,4.90
2019-03-18T21:43:38.931Z,4.80
2019-03-18T21:46:08.762Z,4.80
2019-03-18T21:48:38.672Z,4.80
2019-03-18T21:51:08.637Z,4.70
2019-03-18T21:53:38.487Z,4.60
2019-03-18T21:56:08.420Z,4.50
2019-03-18T21:58:38.324Z,4.40
2019-03-18T22:01:08.147Z,4.40
2019-03-18T22:03:38.004Z,4.40
2019-03-18T22:06:07.851Z,4.40
2019-03-18T22:08:37.780Z,4.50
2019-03-18T22:11:07.686Z,4.50
2019-03-18T22:13:37.512Z,4.40
2019-03-18T22:16:07.352Z,4.20
2019-03-18T22:18:37.243Z,4.00
2019-03-18T22:21:07.102Z,3.90
2019-03-18T22:23:37.851Z,3.80
2019-03-18T22:26:07.683Z,3.80
2019-03-18T22:28:38.074Z,3.80
2019-03-18T22:31:07.918Z,3.80
2019-03-18T22:33:37.750Z,3.80
2019-03-18T22:36:07.716Z,3.70
2019-03-18T22:38:37.664Z,3.70
2019-03-18T22:41:07.480Z,3.70
2019-03-18T22:43:37.312Z,3.70
2019-03-18T22:46:07.220Z,3.60
2019-03-18T22:48:37.142Z,3.70
2019-03-18T22:51:06.987Z,3.50
2019-03-18T22:53:36.848Z,3.40
2019-03-18T22:56:06.784Z,3.40
2019-03-18T22:58:36.696Z,3.30
2019-03-18T23:01:18.847Z,3.10
2019-03-18T23:03:49.682Z,3.00
2019-03-18T23:06:19.531Z,3.00
2019-03-18T23:08:49.465Z,2.90
2019-03-18T23:11:19.427Z,2.90
2019-03-18T23:13:49.267Z,2.90
2019-03-18T23:16:19.109Z,2.90
2019-03-18T23:18:49.020Z,2.80
2019-03-18T23:21:18.985Z,2.90
2019-03-18T23:23:48.826Z,3.00
2019-03-18T23:26:18.663Z,3.00
2019-03-18T23:28:48.587Z,3.10
2019-03-18T23:31:18.470Z,3.10
2019-03-18T23:33:48.296Z,3.10
2019-03-18T23:36:18.195Z,3.00
2019-03-18T23:38:49.113Z,3.00
2019-03-18T23:41:18.967Z,2.90
2019-03-18T23:43:48.807Z,2.80
2019-03-18T23:46:18.676Z,2.80
2019-03-18T23:48:48.921Z,2.80
2019-03-18T23:51:18.763Z,2.90
2019-03-18T23:53:48.624Z,3.00
2019-03-18T23:56:18.459Z,3.10
2019-03-18T23:58:48.367Z,3.30
